createdAt,value
2019-03-25T00:00:10.802Z,52.35
2019-03-25T00:02:40.139Z,52.41
2019-03-25T00:05:09.564Z,52.46
2019-03-25T00:07:38.913Z,52.52
2019-03-25T00:10:08.273Z,52.45
2019-03-25T00:12:37.699Z,52.32
2019-03-25T00:15:07.810Z,52.26
2019-03-25T00:17:37.169Z,52.53
2019-03-25T00:20:07.438Z,52.64
2019-03-25T00:22:36.836Z,53.17
2019-03-25T00:25:07.341Z,53.51
2019-03-25T00:27:36.682Z,53.58
2019-03-25T00:30:07.004Z,53.99
2019-03-25T00:32:38.030Z,54.18
2019-03-25T00:35:10.211Z,54.52
2019-03-25T00:37:41.627Z,55.28
2019-03-25T00:40:11.050Z,55.98
2019-03-25T00:42:40.400Z,56.07
2019-03-25T00:45:09.749Z,56.24
2019-03-25T00:47:39.081Z,56.52
2019-03-25T00:50:08.467Z,56.79
2019-03-25T00:52:37.804Z,57.21
2019-03-25T00:55:07.512Z,57.03
2019-03-25T00:57:36.894Z,57.38
2019-03-25T01:00:08.989Z,57.26
2019-03-25T01:02:37.624Z,57.61
2019-03-25T01:05:08.218Z,57.85
2019-03-25T01:07:37.562Z,57.79
2019-03-25T01:10:08.644Z,58.09
2019-03-25T01:12:37.999Z,58.51
2019-03-25T01:15:08.057Z,58.52
2019-03-25T01:17:37.404Z,59.02
2019-03-25T01:20:07.686Z,58.87
2019-03-25T01:22:37.112Z,58.81
2019-03-25T01:25:09.481Z,58.79
2019-03-25T01:27:38.821Z,58.96
2019-03-25T01:30:10.185Z,59.12
2019-03-25T01:32:39.516Z,59.35
2019-03-25T01:35:08.894Z,59.51
2019-03-25T01:37:38.344Z,59.52
2019-03-25T01:40:08.178Z,59.71
2019-03-25T01:42:37.537Z,59.76
2019-03-25T01:45:07.247Z,59.65
2019-03-25T01:47:36.620Z,58.89
2019-03-25T01:50:08.879Z,57.52
2019-03-25T01:52:38.227Z,56.40
2019-03-25T01:55:13.619Z,55.56
2019-03-25T01:57:40.549Z,55.20
2019-03-25T02:00:10.003Z,55.11
2019-03-25T02:02:39.341Z,54.92
2019-03-25T02:05:08.755Z,54.66
2019-03-25T02:07:38.113Z,54.61
2019-03-25T02:10:08.737Z,55.13
2019-03-25T02:12:38.105Z,55.82
2019-03-25T02:15:07.802Z,56.55
2019-03-25T02:17:37.213Z,56.89
2019-03-25T02:20:07.109Z,57.12
2019-03-25T02:22:36.586Z,57.34
2019-03-25T02:25:08.956Z,57.57
2019-03-25T02:27:38.305Z,57.35
2019-03-25T02:30:08.523Z,57.52
2019-03-25T02:32:37.885Z,57.28
2019-03-25T02:35:09.483Z,56.79
2019-03-25T02:37:38.863Z,56.38
2019-03-25T02:40:08.195Z,56.35
2019-03-25T02:42:39.167Z,56.30
2019-03-25T02:45:08.525Z,56.44
2019-03-25T02:47:37.858Z,56.31
2019-03-25T02:50:07.239Z,55.82
2019-03-25T02:52:36.578Z,55.66
2019-03-25T02:55:07.458Z,55.41
2019-03-25T02:57:36.928Z,55.55
2019-03-25T03:00:07.188Z,55.69
2019-03-25T03:02:36.546Z,56.07
2019-03-25T03:05:07.322Z,56.26
2019-03-25T03:07:36.653Z,56.41
2019-03-25T03:10:07.799Z,56.40
2019-03-25T03:12:37.137Z,56.26
2019-03-25T03:15:07.279Z,56.11
2019-03-25T03:17:36.710Z,56.44
2019-03-25T03:20:07.710Z,56.34
2019-03-25T03:22:37.042Z,56.25
2019-03-25T03:25:06.402Z,56.52
2019-03-25T03:27:35.760Z,56.86
2019-03-25T03:30:07.370Z,57.08
2019-03-25T03:32:36.737Z,57.38
2019-03-25T03:35:07.729Z,57.97
2019-03-25T03:37:37.057Z,58.08
2019-03-25T03:40:09.092Z,58.40
2019-03-25T03:42:37.706Z,58.60
2019-03-25T03:45:07.484Z,58.74
2019-03-25T03:47:36.811Z,59.01
2019-03-25T03:50:13.953Z,59.30
2019-03-25T03:52:42.925Z,59.65
2019-03-25T03:55:12.260Z,59.72
2019-03-25T03:57:41.638Z,59.88
2019-03-25T04:00:15.865Z,59.95
2019-03-25T04:02:45.200Z,60.04
2019-03-25T04:05:14.620Z,60.31
2019-03-25T04:07:43.978Z,59.85
2019-03-25T04:10:13.352Z,59.76
2019-03-25T04:12:42.680Z,59.58
2019-03-25T04:15:33.405Z,59.07
2019-03-25T04:18:02.729Z,58.25
2019-03-25T04:20:32.125Z,58.08
2019-03-25T04:23:01.479Z,57.57
2019-03-25T04:25:30.820Z,57.40
2019-03-25T04:28:00.174Z,57.11
2019-03-25T04:30:29.533Z,56.63
2019-03-25T04:32:58.961Z,56.77
2019-03-25T04:35:28.316Z,56.54
2019-03-25T04:37:57.683Z,56.57
2019-03-25T04:40:27.083Z,56.07
2019-03-25T04:42:56.480Z,56.06
2019-03-25T04:45:25.847Z,55.57
2019-03-25T04:47:55.212Z,55.97
2019-03-25T04:50:24.530Z,55.75
2019-03-25T04:52:53.909Z,55.99
2019-03-25T04:55:23.243Z,56.04
2019-03-25T04:57:52.671Z,56.29
2019-03-25T05:00:36.399Z,56.40
2019-03-25T05:03:05.800Z,56.30
2019-03-25T05:05:36.284Z,56.73
2019-03-25T05:08:05.837Z,56.67
2019-03-25T05:10:35.180Z,56.26
2019-03-25T05:13:04.538Z,55.94
2019-03-25T05:15:34.832Z,55.70
2019-03-25T05:18:04.196Z,56.28
2019-03-25T05:20:33.601Z,56.29
2019-03-25T05:23:02.927Z,56.38
2019-03-25T05:25:32.285Z,56.02
2019-03-25T05:28:01.688Z,55.86
2019-03-25T05:30:31.188Z,55.27
2019-03-25T05:33:00.512Z,55.49
2019-03-25T05:35:29.866Z,55.17
2019-03-25T05:37:59.223Z,55.11
2019-03-25T05:40:28.559Z,55.19
2019-03-25T05:42:57.910Z,56.08
2019-03-25T05:45:27.325Z,55.62
2019-03-25T05:47:56.659Z,55.43
2019-03-25T05:50:26.682Z,55.42
2019-03-25T05:52:56.085Z,55.42
2019-03-25T05:55:25.448Z,55.80
2019-03-25T05:57:54.798Z,55.96
2019-03-25T06:00:26.037Z,56.06
2019-03-25T06:02:55.386Z,56.04
2019-03-25T06:05:24.726Z,56.03
2019-03-25T06:07:54.111Z,56.60
2019-03-25T06:10:23.512Z,56.69
2019-03-25T06:12:52.858Z,56.69
2019-03-25T06:15:22.212Z,57.80
2019-03-25T06:17:51.555Z,56.71
2019-03-25T06:20:22.783Z,58.58
2019-03-25T06:22:52.144Z,56.26
2019-03-25T06:25:21.482Z,56.27
2019-03-25T06:27:50.837Z,56.62
2019-03-25T06:30:20.160Z,56.25
2019-03-25T06:32:49.531Z,56.85
2019-03-25T06:35:18.880Z,56.25
2019-03-25T06:37:49.517Z,56.26
2019-03-25T06:40:18.882Z,56.02
2019-03-25T06:42:49.848Z,56.07
2019-03-25T06:45:19.289Z,55.85
2019-03-25T06:47:48.634Z,55.92
2019-03-25T06:50:17.967Z,56.36
2019-03-25T06:52:47.331Z,56.74
2019-03-25T06:55:16.665Z,56.76
2019-03-25T06:57:46.027Z,56.95
2019-03-25T07:00:15.363Z,57.73
2019-03-25T07:02:44.698Z,57.40
2019-03-25T07:05:14.130Z,56.11
2019-03-25T07:07:43.465Z,56.51
2019-03-25T07:10:12.898Z,56.07
2019-03-25T07:12:42.291Z,56.23
2019-03-25T07:15:11.638Z,56.66
2019-03-25T07:17:41.038Z,57.14
2019-03-25T07:20:11.234Z,57.36
2019-03-25T07:22:40.626Z,57.85
2019-03-25T07:25:11.642Z,58.58
2019-03-25T07:27:40.980Z,58.75
2019-03-25T07:30:11.543Z,57.51
2019-03-25T07:32:41.167Z,57.31
2019-03-25T07:35:10.522Z,57.23
2019-03-25T07:37:39.869Z,58.54
2019-03-25T07:40:10.145Z,58.54
2019-03-25T07:42:42.650Z,56.88
2019-03-25T07:45:11.215Z,57.09
2019-03-25T07:47:40.583Z,57.78
2019-03-25T07:50:09.984Z,59.47
2019-03-25T07:52:39.322Z,58.17
2019-03-25T07:55:08.763Z,57.60
2019-03-25T07:57:47.679Z,58.38
2019-03-25T08:00:14.200Z,57.74
2019-03-25T08:02:43.857Z,57.57
2019-03-25T08:05:13.182Z,57.27
2019-03-25T08:07:42.550Z,57.65
2019-03-25T08:10:12.018Z,57.78
2019-03-25T08:12:41.364Z,58.94
2019-03-25T08:15:10.716Z,59.12
2019-03-25T08:17:40.076Z,58.63
2019-03-25T08:20:09.489Z,57.95
2019-03-25T08:22:38.846Z,57.64
2019-03-25T08:25:08.182Z,57.76
2019-03-25T08:27:37.521Z,57.70
2019-03-25T08:30:09.691Z,58.31
2019-03-25T08:32:38.318Z,58.40
2019-03-25T08:35:08.216Z,57.87
2019-03-25T08:37:37.590Z,57.68
2019-03-25T08:40:11.511Z,57.70
2019-03-25T08:42:40.899Z,58.78
2019-03-25T08:45:10.240Z,56.97
2019-03-25T08:47:39.571Z,57.00
2019-03-25T08:50:09.098Z,56.49
2019-03-25T08:52:38.446Z,55.39
2019-03-25T08:55:08.458Z,55.50
2019-03-25T08:57:37.794Z,55.05
2019-03-25T09:00:09.649Z,54.49
2019-03-25T09:02:38.994Z,54.41
2019-03-25T09:05:08.497Z,54.72
2019-03-25T09:07:37.922Z,55.21
2019-03-25T09:10:08.393Z,55.47
2019-03-25T09:12:37.900Z,55.47
2019-03-25T09:15:08.782Z,54.19
2019-03-25T09:17:38.119Z,54.96
2019-03-25T09:20:08.002Z,53.60
2019-03-25T09:22:37.395Z,53.83
2019-03-25T09:25:09.497Z,52.90
2019-03-25T09:27:38.119Z,52.66
2019-03-25T09:30:09.988Z,53.00
2019-03-25T09:32:39.348Z,53.35
2019-03-25T09:35:10.309Z,52.35
2019-03-25T09:37:40.115Z,51.56
2019-03-25T09:40:11.960Z,51.86
2019-03-25T09:42:41.290Z,51.80
2019-03-25T09:45:10.652Z,51.12
2019-03-25T09:47:39.975Z,50.19
2019-03-25T09:50:10.029Z,49.72
2019-03-25T09:52:39.394Z,49.20
2019-03-25T09:55:09.006Z,50.68
2019-03-25T09:57:38.405Z,49.66
2019-03-25T10:00:11.643Z,48.72
2019-03-25T10:02:42.186Z,47.04
2019-03-25T10:05:11.541Z,45.97
2019-03-25T10:07:40.869Z,45.56
2019-03-25T10:10:10.246Z,43.91
2019-03-25T10:12:39.593Z,43.94
2019-03-25T10:15:09.378Z,44.36
2019-03-25T10:17:38.820Z,44.34
2019-03-25T10:20:11.196Z,41.65
2019-03-25T10:22:40.574Z,39.93
2019-03-25T10:25:11.295Z,39.50
2019-03-25T10:27:40.647Z,39.23
2019-03-25T10:30:15.400Z,39.55
2019-03-25T10:32:45.211Z,39.71
2019-03-25T10:35:14.909Z,39.71
2019-03-25T10:37:44.330Z,39.43
2019-03-25T10:40:13.748Z,39.16
2019-03-25T10:42:43.095Z,38.97
2019-03-25T10:45:13.120Z,39.26
2019-03-25T10:47:42.484Z,39.68
2019-03-25T10:50:12.397Z,39.99
2019-03-25T10:52:41.745Z,39.56
2019-03-25T10:55:11.120Z,38.96
2019-03-25T10:57:40.450Z,38.12
2019-03-25T11:00:10.730Z,38.50
2019-03-25T11:02:40.080Z,38.20
2019-03-25T11:05:09.434Z,38.37
2019-03-25T11:07:39.010Z,38.73
2019-03-25T11:10:09.207Z,38.64
2019-03-25T11:12:38.584Z,38.50
2019-03-25T11:15:08.555Z,39.00
2019-03-25T11:17:38.053Z,38.97
2019-03-25T11:20:09.486Z,38.68
2019-03-25T11:22:38.810Z,37.80
2019-03-25T11:25:08.221Z,38.48
2019-03-25T11:27:37.571Z,38.83
2019-03-25T11:30:11.717Z,39.37
2019-03-25T11:32:41.072Z,41.30
2019-03-25T11:35:10.487Z,41.76
2019-03-25T11:37:39.878Z,41.42
2019-03-25T11:40:09.534Z,39.03
2019-03-25T11:42:38.881Z,37.00
2019-03-25T11:45:09.884Z,36.96
2019-03-25T11:47:39.235Z,36.83
2019-03-25T11:50:08.754Z,35.17
2019-03-25T11:52:38.103Z,35.64
2019-03-25T11:55:07.791Z,35.04
2019-03-25T11:57:37.168Z,35.26
2019-03-25T12:00:09.671Z,34.61
2019-03-25T12:02:39.108Z,33.42
2019-03-25T12:05:09.022Z,33.48
2019-03-25T12:07:38.384Z,33.31
2019-03-25T12:10:07.907Z,33.61
2019-03-25T12:12:37.260Z,33.46
2019-03-25T12:15:08.169Z,33.50
2019-03-25T12:17:37.512Z,34.40
2019-03-25T12:20:09.890Z,34.08
2019-03-25T12:22:39.262Z,33.61
2019-03-25T12:25:08.602Z,34.52
2019-03-25T12:27:39.622Z,34.55
2019-03-25T12:30:10.809Z,33.60
2019-03-25T12:32:40.214Z,33.89
2019-03-25T12:35:09.570Z,33.87
2019-03-25T12:37:38.936Z,33.34
2019-03-25T12:40:08.307Z,33.32
2019-03-25T12:42:37.650Z,32.80
2019-03-25T12:45:08.609Z,32.34
2019-03-25T12:47:37.956Z,32.52
2019-03-25T12:50:08.231Z,33.54
2019-03-25T12:52:37.605Z,34.85
2019-03-25T12:55:06.957Z,36.54
2019-03-25T12:57:36.300Z,36.04
2019-03-25T13:00:07.394Z,35.44
2019-03-25T13:02:36.734Z,35.06
2019-03-25T13:05:07.264Z,35.68
2019-03-25T13:07:36.616Z,37.90
2019-03-25T13:10:06.994Z,39.51
2019-03-25T13:12:36.331Z,40.40
2019-03-25T13:15:10.034Z,38.25
2019-03-25T13:17:39.394Z,37.64
2019-03-25T13:20:08.734Z,38.03
2019-03-25T13:22:38.115Z,37.24
2019-03-25T13:25:07.455Z,38.19
2019-03-25T13:27:36.788Z,39.03
2019-03-25T13:30:08.624Z,40.42
2019-03-25T13:32:37.976Z,40.85
2019-03-25T13:35:10.156Z,41.17
2019-03-25T13:37:38.791Z,40.80
2019-03-25T13:40:08.394Z,37.09
2019-03-25T13:42:37.771Z,34.38
2019-03-25T13:45:08.722Z,35.12
2019-03-25T13:47:38.101Z,35.28
2019-03-25T13:50:07.618Z,34.97
2019-03-25T13:52:36.954Z,35.08
2019-03-25T13:55:06.969Z,35.85
2019-03-25T13:57:36.399Z,35.41
2019-03-25T14:00:07.497Z,33.96
2019-03-25T14:02:37.141Z,34.02
2019-03-25T14:05:07.444Z,34.11
2019-03-25T14:07:36.806Z,34.20
2019-03-25T14:10:08.482Z,34.24
2019-03-25T14:12:37.820Z,34.03
2019-03-25T14:15:09.843Z,34.29
2019-03-25T14:17:39.243Z,33.56
2019-03-25T14:20:08.880Z,34.15
2019-03-25T14:22:38.230Z,35.75
2019-03-25T14:25:07.563Z,36.08
2019-03-25T14:27:36.923Z,35.08
2019-03-25T14:30:14.583Z,33.89
2019-03-25T14:32:38.860Z,33.58
2019-03-25T14:35:08.189Z,32.46
2019-03-25T14:37:37.548Z,31.87
2019-03-25T14:40:08.275Z,31.92
2019-03-25T14:42:37.634Z,32.27
2019-03-25T14:45:07.555Z,33.39
2019-03-25T14:47:36.927Z,34.65
2019-03-25T14:50:07.626Z,35.23
2019-03-25T14:52:36.990Z,36.71
2019-03-25T14:55:06.445Z,36.24
2019-03-25T14:57:35.796Z,35.72
2019-03-25T15:00:08.052Z,35.62
2019-03-25T15:02:37.417Z,33.87
2019-03-25T15:05:07.631Z,34.90
2019-03-25T15:07:36.988Z,34.74
2019-03-25T15:10:07.465Z,34.86
2019-03-25T15:12:36.834Z,34.81
2019-03-25T15:15:07.941Z,34.26
2019-03-25T15:17:37.287Z,35.87
2019-03-25T15:20:10.058Z,37.16
2019-03-25T15:22:39.652Z,37.02
2019-03-25T15:25:09.624Z,34.19
2019-03-25T15:27:38.985Z,33.00
2019-03-25T15:30:10.044Z,33.23
2019-03-25T15:32:39.411Z,33.28
2019-03-25T15:35:08.938Z,33.72
2019-03-25T15:37:38.317Z,33.54
2019-03-25T15:40:09.799Z,33.95
2019-03-25T15:42:39.207Z,33.79
2019-03-25T15:45:09.534Z,33.64
2019-03-25T15:47:39.998Z,33.72
2019-03-25T15:50:11.236Z,33.16
2019-03-25T15:52:40.591Z,31.81
2019-03-25T15:55:10.294Z,31.62
2019-03-25T15:57:40.099Z,32.50
2019-03-25T16:00:14.257Z,32.14
2019-03-25T16:02:43.602Z,32.74
2019-03-25T16:05:13.142Z,32.93
2019-03-25T16:07:42.503Z,34.14
2019-03-25T16:10:12.042Z,34.90
2019-03-25T16:12:41.382Z,34.69
2019-03-25T16:15:11.933Z,35.08
2019-03-25T16:17:43.170Z,35.32
2019-03-25T16:20:12.741Z,36.02
2019-03-25T16:22:42.117Z,36.13
2019-03-25T16:25:16.337Z,36.63
2019-03-25T16:27:45.683Z,36.67
2019-03-25T16:30:15.050Z,36.95
2019-03-25T16:32:44.388Z,36.84
2019-03-25T16:35:13.779Z,37.18
2019-03-25T16:37:43.108Z,37.46
2019-03-25T16:40:12.439Z,37.70
2019-03-25T16:42:41.807Z,37.95
2019-03-25T16:45:11.229Z,38.10
2019-03-25T16:47:40.599Z,38.46
2019-03-25T16:50:09.935Z,39.21
2019-03-25T16:52:39.288Z,39.71
2019-03-25T16:55:09.036Z,40.16
2019-03-25T16:57:38.402Z,40.08
2019-03-25T17:00:08.516Z,40.21
2019-03-25T17:02:37.865Z,40.65
2019-03-25T17:05:07.280Z,40.36
2019-03-25T17:07:36.656Z,40.30
2019-03-25T17:10:07.430Z,40.67
2019-03-25T17:12:36.784Z,40.86
2019-03-25T17:15:08.828Z,40.37
2019-03-25T17:17:38.238Z,40.69
2019-03-25T17:20:07.644Z,40.46
2019-03-25T17:22:36.982Z,40.09
2019-03-25T17:25:07.501Z,40.22
2019-03-25T17:27:36.818Z,40.68
2019-03-25T17:30:15.648Z,40.45
2019-03-25T17:32:45.000Z,40.29
2019-03-25T17:35:14.341Z,40.46
2019-03-25T17:37:43.703Z,40.65
2019-03-25T17:40:13.090Z,41.65
2019-03-25T17:42:42.482Z,42.21
2019-03-25T17:45:11.918Z,42.55
2019-03-25T17:47:41.259Z,42.87
2019-03-25T17:50:10.629Z,43.51
2019-03-25T17:52:39.978Z,43.69
2019-03-25T17:55:09.362Z,43.94
2019-03-25T17:57:38.717Z,44.49
2019-03-25T18:00:10.930Z,44.82
2019-03-25T18:02:39.572Z,45.06
2019-03-25T18:05:09.387Z,45.25
2019-03-25T18:07:38.764Z,45.12
2019-03-25T18:10:10.864Z,44.78
2019-03-25T18:12:39.492Z,44.94
2019-03-25T18:15:11.222Z,45.13
2019-03-25T18:17:40.567Z,45.24
2019-03-25T18:20:18.110Z,45.56
2019-03-25T18:22:41.010Z,45.65
2019-03-25T18:25:10.342Z,45.71
2019-03-25T18:27:39.690Z,45.91
2019-03-25T18:30:09.105Z,45.86
2019-03-25T18:32:38.463Z,45.88
2019-03-25T18:35:07.802Z,46.19
2019-03-25T18:37:37.962Z,46.33
2019-03-25T18:40:07.330Z,46.48
2019-03-25T18:42:36.665Z,46.60
2019-03-25T18:45:06.898Z,46.66
2019-03-25T18:47:36.238Z,46.67
2019-03-25T18:50:07.731Z,46.58
2019-03-25T18:52:37.091Z,46.64
2019-03-25T18:55:07.956Z,46.72
2019-03-25T18:57:37.398Z,47.14
2019-03-25T19:00:10.692Z,46.94
2019-03-25T19:02:40.048Z,47.07
2019-03-25T19:05:09.385Z,47.11
2019-03-25T19:07:38.745Z,47.06
2019-03-25T19:10:14.551Z,47.51
2019-03-25T19:12:43.725Z,47.58
2019-03-25T19:15:13.066Z,47.85
2019-03-25T19:17:42.403Z,47.98
2019-03-25T19:20:11.810Z,48.13
2019-03-25T19:22:41.174Z,48.30
2019-03-25T19:25:10.502Z,48.98
2019-03-25T19:27:39.844Z,49.37
2019-03-25T19:30:10.443Z,49.24
2019-03-25T19:32:39.792Z,49.54
2019-03-25T19:35:09.249Z,49.70
2019-03-25T19:37:38.765Z,49.86
2019-03-25T19:40:09.145Z,49.98
2019-03-25T19:42:38.497Z,50.11
2019-03-25T19:45:08.539Z,50.49
2019-03-25T19:47:37.967Z,50.56
2019-03-25T19:50:08.544Z,50.53
2019-03-25T19:52:37.895Z,50.82
2019-03-25T19:55:07.331Z,50.91
2019-03-25T19:57:36.977Z,51.06
2019-03-25T20:00:09.721Z,51.01
2019-03-25T20:02:39.073Z,51.21
2019-03-25T20:05:08.645Z,51.40
2019-03-25T20:07:38.239Z,51.04
2019-03-25T20:10:08.327Z,50.98
2019-03-25T20:12:37.672Z,51.03
2019-03-25T20:15:08.110Z,51.13
2019-03-25T20:17:37.455Z,51.12
2019-03-25T20:20:07.378Z,50.91
2019-03-25T20:22:36.713Z,51.07
2019-03-25T20:25:07.489Z,51.07
2019-03-25T20:27:36.897Z,51.00
2019-03-25T20:30:11.012Z,51.41
2019-03-25T20:32:40.350Z,51.28
2019-03-25T20:35:09.747Z,51.13
2019-03-25T20:37:39.132Z,51.12
2019-03-25T20:40:08.729Z,51.05
2019-03-25T20:42:38.176Z,51.34
2019-03-25T20:45:08.878Z,51.27
2019-03-25T20:47:38.225Z,51.30
2019-03-25T20:50:07.735Z,51.08
2019-03-25T20:52:37.076Z,50.91
2019-03-25T20:55:07.817Z,51.30
2019-03-25T20:57:37.139Z,51.13
2019-03-25T21:00:08.582Z,51.04
2019-03-25T21:02:44.836Z,51.00
2019-03-25T21:05:09.019Z,51.21
2019-03-25T21:07:38.425Z,51.11
2019-03-25T21:10:08.562Z,51.06
2019-03-25T21:12:39.555Z,51.07
2019-03-25T21:15:09.220Z,51.10
2019-03-25T21:17:38.778Z,51.03
2019-03-25T21:20:08.897Z,51.09
2019-03-25T21:22:38.253Z,51.12
2019-03-25T21:25:08.208Z,51.10
2019-03-25T21:27:37.615Z,51.42
2019-03-25T21:30:08.253Z,51.39
2019-03-25T21:32:37.667Z,51.87
2019-03-25T21:35:07.443Z,51.86
2019-03-25T21:37:36.863Z,51.97
2019-03-25T21:40:07.713Z,52.11
2019-03-25T21:42:37.039Z,52.40
2019-03-25T21:45:08.101Z,52.82
2019-03-25T21:47:37.433Z,52.79
2019-03-25T21:50:06.915Z,52.88
2019-03-25T21:52:36.373Z,53.05
2019-03-25T21:55:07.369Z,53.22
2019-03-25T21:57:36.809Z,53.36
2019-03-25T22:00:09.343Z,53.37
2019-03-25T22:02:38.714Z,53.81
2019-03-25T22:05:08.174Z,54.12
2019-03-25T22:07:37.519Z,54.53
2019-03-25T22:10:07.357Z,54.43
2019-03-25T22:12:36.716Z,54.43
2019-03-25T22:15:09.053Z,54.10
2019-03-25T22:17:39.823Z,54.09
2019-03-25T22:20:10.204Z,54.01
2019-03-25T22:22:39.602Z,53.78
2019-03-25T22:25:09.220Z,53.88
2019-03-25T22:27:38.559Z,53.63
2019-03-25T22:30:08.444Z,53.50
2019-03-25T22:32:37.796Z,53.74
2019-03-25T22:35:08.804Z,54.05
2019-03-25T22:37:38.156Z,54.18
2019-03-25T22:40:10.207Z,54.18
2019-03-25T22:42:39.566Z,54.43
2019-03-25T22:45:09.989Z,54.39
2019-03-25T22:47:39.355Z,54.32
2019-03-25T22:50:12.122Z,53.86
2019-03-25T22:52:41.476Z,53.97
2019-03-25T22:55:10.827Z,53.92
2019-03-25T22:57:40.176Z,53.78
2019-03-25T23:00:10.360Z,53.84
2019-03-25T23:02:39.783Z,53.73
2019-03-25T23:05:09.209Z,53.72
2019-03-25T23:07:38.564Z,53.73
2019-03-25T23:10:07.984Z,53.77
2019-03-25T23:12:37.347Z,53.85
2019-03-25T23:15:07.061Z,54.00
2019-03-25T23:17:36.391Z,53.96
2019-03-25T23:20:06.532Z,53.98
2019-03-25T23:22:35.878Z,54.08
2019-03-25T23:25:07.114Z,54.16
2019-03-25T23:27:36.466Z,54.09
2019-03-25T23:30:06.443Z,53.97
2019-03-25T23:32:35.798Z,53.86
2019-03-25T23:35:06.688Z,54.05
2019-03-25T23:37:36.067Z,53.79
2019-03-25T23:40:07.709Z,53.73
2019-03-25T23:42:37.141Z,53.94
2019-03-25T23:45:07.453Z,53.61
2019-03-25T23:47:37.599Z,53.56
2019-03-25T23:50:07.135Z,53.45
2019-03-25T23:52:36.467Z,53.68
2019-03-25T23:55:06.977Z,53.38
2019-03-25T23:57:36.335Z,53.31
